Terminal Aerodrome Forecast
Issued by NWS Sterling, VA

Current Version | Previous Version | Graphics & Text | Print | Product List | Glossary On
Versions: 1 2 3 4 5 6 7 8 9 10 11 12 13 14 15 16 17 18 19 20 21 22
000
FTUS41 KLWX 270539
TAFMRB
TAF
KMRB 270539Z 2706/2806 00000KT P6SM -SHRA OVC080
     FM270900 13008KT 3SM -SHRA OVC010
     FM272200 16011KT 6SM -SHRA OVC040
     FM280000 18011KT 6SM -SHRA OVC060
     FM280300 22010KT 6SM -SHRA OVC090=

USA.gov is the U.S. government's official web portal to all federal, state and local government web resources and services.